createdAt,value
2018-06-04T00:01:03.096Z,317.87
2018-06-04T00:03:31.275Z,273.93
2018-06-04T00:05:59.406Z,260.23
2018-06-04T00:08:27.767Z,236.50
2018-06-04T00:10:55.702Z,254.83
2018-06-04T00:13:23.880Z,257.50
2018-06-04T00:15:51.976Z,265.30
2018-06-04T00:18:20.407Z,281.37
2018-06-04T00:20:48.431Z,284.47
2018-06-04T00:23:16.473Z,257.93
2018-06-04T00:25:44.412Z,251.33
2018-06-04T00:28:12.910Z,261.70
2018-06-04T00:30:41.014Z,291.97
2018-06-04T00:33:09.260Z,302.67
2018-06-04T00:35:38.481Z,326.10
2018-06-04T00:38:06.550Z,348.77
2018-06-04T00:40:34.899Z,330.43
2018-06-04T00:43:02.806Z,323.70
2018-06-04T00:45:31.054Z,317.73
2018-06-04T00:47:59.131Z,327.93
2018-06-04T00:50:27.369Z,377.63
2018-06-04T00:52:55.883Z,324.57
2018-06-04T00:55:23.950Z,279.10
2018-06-04T00:57:51.828Z,281.73
2018-06-04T01:00:19.887Z,282.10
2018-06-04T01:02:47.964Z,300.67
2018-06-04T01:05:16.192Z,249.90
2018-06-04T01:07:44.512Z,229.40
2018-06-04T01:10:12.830Z,240.37
2018-06-04T01:12:40.847Z,245.43
2018-06-04T01:15:08.834Z,269.03
2018-06-04T01:17:36.792Z,262.77
2018-06-04T01:20:05.071Z,295.47
2018-06-04T01:22:33.119Z,316.13
2018-06-04T01:25:01.624Z,311.50
2018-06-04T01:27:29.694Z,292.17
2018-06-04T01:29:57.956Z,229.33
2018-06-04T01:32:26.040Z,295.10
2018-06-04T01:34:54.199Z,384.77
2018-06-04T01:37:22.288Z,356.90
2018-06-04T01:39:50.098Z,366.60
2018-06-04T01:42:18.298Z,382.57
2018-06-04T01:44:46.227Z,381.07
2018-06-04T01:47:15.439Z,353.10
2018-06-04T01:49:43.551Z,361.97
2018-06-04T01:52:11.623Z,338.93
2018-06-04T01:54:39.718Z,360.23
2018-06-04T01:57:07.759Z,387.60
2018-06-04T01:59:35.836Z,385.87
2018-06-04T02:02:03.908Z,415.17
2018-06-04T02:04:31.782Z,406.93
2018-06-04T02:06:59.853Z,400.63
2018-06-04T02:09:27.767Z,252.57
2018-06-04T02:11:55.931Z,404.67
2018-06-04T02:14:24.250Z,431.50
2018-06-04T02:16:52.725Z,508.77
2018-06-04T02:19:21.015Z,465.87
2018-06-04T02:21:48.991Z,411.87
2018-06-04T02:24:17.015Z,404.13
2018-06-04T02:26:45.240Z,387.83
2018-06-04T02:29:13.516Z,459.83
2018-06-04T02:31:41.571Z,415.27
2018-06-04T02:34:09.856Z,418.87
2018-06-04T02:36:37.830Z,425.37
2018-06-04T02:39:06.915Z,383.67
2018-06-04T02:41:35.068Z,311.20
2018-06-04T02:44:03.570Z,439.00
2018-06-04T02:46:31.505Z,398.30
2018-06-04T02:48:59.432Z,334.97
2018-06-04T02:51:27.398Z,369.33
2018-06-04T02:53:55.487Z,415.40
2018-06-04T02:56:23.427Z,391.17
2018-06-04T02:58:51.411Z,435.57
2018-06-04T03:01:20.085Z,318.67
2018-06-04T03:03:48.341Z,363.93
2018-06-04T03:06:16.397Z,454.80
2018-06-04T03:08:44.494Z,370.17
2018-06-04T03:11:12.528Z,446.47
2018-06-04T03:13:40.589Z,452.53
2018-06-04T03:16:08.701Z,368.63
2018-06-04T03:18:36.661Z,383.50
2018-06-04T03:21:04.639Z,385.97
2018-06-04T03:23:32.719Z,387.00
2018-06-04T03:26:00.740Z,359.27
2018-06-04T03:28:28.846Z,374.70
2018-06-04T03:30:56.797Z,381.03
2018-06-04T03:33:25.017Z,342.57
2018-06-04T03:35:53.252Z,325.17
2018-06-04T03:38:21.355Z,334.10
2018-06-04T03:40:49.590Z,386.73
2018-06-04T03:43:17.705Z,385.33
2018-06-04T03:45:45.956Z,353.10
2018-06-04T03:48:14.080Z,332.97
2018-06-04T03:50:42.144Z,317.37
2018-06-04T03:53:10.025Z,335.67
2018-06-04T03:55:38.317Z,326.97
2018-06-04T03:58:06.416Z,307.30
2018-06-04T04:00:34.385Z,279.70
2018-06-04T04:03:02.436Z,276.87
2018-06-04T04:05:30.450Z,295.97
2018-06-04T04:07:59.584Z,283.10
2018-06-04T04:10:27.514Z,304.60
2018-06-04T04:12:55.513Z,295.17
2018-06-04T04:15:23.433Z,323.40
2018-06-04T04:17:52.625Z,309.13
2018-06-04T04:20:20.532Z,285.43
2018-06-04T04:22:48.478Z,296.23
2018-06-04T04:25:16.392Z,279.57
2018-06-04T04:27:44.461Z,284.67
2018-06-04T04:30:12.400Z,286.37
2018-06-04T04:32:40.509Z,286.57
2018-06-04T04:35:08.411Z,301.23
2018-06-04T04:37:36.378Z,279.50
2018-06-04T04:40:04.296Z,288.47
2018-06-04T04:42:32.210Z,270.57
2018-06-04T04:45:00.144Z,287.90
2018-06-04T04:47:28.251Z,289.73
2018-06-04T04:49:56.189Z,217.10
2018-06-04T04:52:24.230Z,256.60
2018-06-04T04:54:52.198Z,291.40
2018-06-04T04:57:21.426Z,286.03
2018-06-04T04:59:49.369Z,277.63
2018-06-04T05:02:17.414Z,274.93
2018-06-04T05:04:45.356Z,320.37
2018-06-04T05:07:13.331Z,298.10
2018-06-04T05:09:41.258Z,321.80
2018-06-04T05:12:09.277Z,264.73
2018-06-04T05:14:37.256Z,302.03
2018-06-04T05:17:05.308Z,304.07
2018-06-04T05:19:33.275Z,319.63
2018-06-04T05:22:01.287Z,266.97
2018-06-04T05:24:29.174Z,313.80
2018-06-04T05:26:57.230Z,288.93
2018-06-04T05:29:25.157Z,319.40
2018-06-04T05:31:56.507Z,293.57
2018-06-04T05:34:24.416Z,351.93
2018-06-04T05:36:52.208Z,315.70
2018-06-04T05:39:20.086Z,295.43
2018-06-04T05:41:48.063Z,271.27
2018-06-04T05:44:16.039Z,283.77
2018-06-04T05:46:44.218Z,332.00
2018-06-04T05:49:12.148Z,314.60
2018-06-04T05:51:40.363Z,312.77
2018-06-04T05:54:08.276Z,293.40
2018-06-04T05:56:36.503Z,257.03
2018-06-04T05:59:04.491Z,282.97
2018-06-04T06:01:33.638Z,220.83
2018-06-04T06:04:01.546Z,270.03
2018-06-04T06:06:29.672Z,228.03
2018-06-04T06:08:57.682Z,224.63
2018-06-04T06:11:25.725Z,290.20
2018-06-04T06:13:53.618Z,239.07
2018-06-04T06:16:22.388Z,222.60
2018-06-04T06:18:50.325Z,240.07
2018-06-04T06:21:18.135Z,240.90
2018-06-04T06:23:46.089Z,196.17
2018-06-04T06:26:14.191Z,251.47
2018-06-04T06:28:42.106Z,286.23
2018-06-04T06:31:10.331Z,257.63
2018-06-04T06:33:38.239Z,244.00
2018-06-04T06:36:06.448Z,250.27
2018-06-04T06:38:34.316Z,223.70
2018-06-04T06:41:03.963Z,251.53
2018-06-04T06:43:33.436Z,278.33
2018-06-04T06:46:01.574Z,270.67
2018-06-04T06:48:29.502Z,272.33
2018-06-04T06:50:57.434Z,238.30
2018-06-04T06:53:25.433Z,204.90
2018-06-04T06:55:53.383Z,231.83
2018-06-04T06:58:21.279Z,250.07
2018-06-04T07:00:49.198Z,214.10
2018-06-04T07:03:17.120Z,223.00
2018-06-04T07:05:45.002Z,231.53
2018-06-04T07:08:12.898Z,221.63
2018-06-04T07:10:40.867Z,188.67
2018-06-04T07:13:09.164Z,217.13
2018-06-04T07:15:37.119Z,188.83
2018-06-04T07:18:05.089Z,214.13
2018-06-04T07:20:33.103Z,203.77
2018-06-04T07:23:00.967Z,175.00
2018-06-04T07:25:29.172Z,184.07
2018-06-04T07:27:57.233Z,162.97
2018-06-04T07:30:25.135Z,177.83
2018-06-04T07:32:53.028Z,169.07
2018-06-04T07:35:20.937Z,143.00
2018-06-04T07:37:48.872Z,144.50
2018-06-04T07:40:16.799Z,152.47
2018-06-04T07:42:44.710Z,138.57
2018-06-04T07:45:12.626Z,145.60
2018-06-04T07:47:40.534Z,144.53
2018-06-04T07:50:10.381Z,158.10
2018-06-04T07:52:38.252Z,149.20
2018-06-04T07:55:06.375Z,154.90
2018-06-04T07:57:34.238Z,139.33
2018-06-04T08:00:02.295Z,138.73
2018-06-04T08:02:30.210Z,148.37
2018-06-04T08:04:58.130Z,149.13
2018-06-04T08:07:26.061Z,156.67
2018-06-04T08:09:54.101Z,132.37
2018-06-04T08:12:22.054Z,134.53
2018-06-04T08:14:50.005Z,146.73
2018-06-04T08:17:17.907Z,136.00
2018-06-04T08:19:45.933Z,120.63
2018-06-04T08:22:13.908Z,116.83
2018-06-04T08:24:41.891Z,133.63
2018-06-04T08:27:09.824Z,120.37
2018-06-04T08:29:37.839Z,118.37
2018-06-04T08:32:05.786Z,120.47
2018-06-04T08:34:33.768Z,112.80
2018-06-04T08:37:01.666Z,119.80
2018-06-04T08:39:29.723Z,129.07
2018-06-04T08:41:57.576Z,117.83
2018-06-04T08:44:25.581Z,125.20
2018-06-04T08:46:53.451Z,111.63
2018-06-04T08:49:22.447Z,129.13
2018-06-04T08:51:50.217Z,123.33
2018-06-04T08:54:18.253Z,109.40
2018-06-04T08:56:46.139Z,95.03
2018-06-04T08:59:14.122Z,91.23
2018-06-04T09:01:41.884Z,77.67
2018-06-04T09:04:09.850Z,83.67
2018-06-04T09:06:37.745Z,78.07
2018-06-04T09:09:06.498Z,70.93
2018-06-04T09:11:34.434Z,73.93
2018-06-04T09:14:02.395Z,79.13
2018-06-04T09:16:30.308Z,73.10
2018-06-04T09:18:58.209Z,72.07
2018-06-04T09:21:26.120Z,87.43
2018-06-04T09:23:53.913Z,79.60
2018-06-04T09:26:21.851Z,79.13
2018-06-04T09:28:49.997Z,75.17
2018-06-04T09:31:17.956Z,74.37
2018-06-04T09:33:45.929Z,75.17
2018-06-04T09:36:13.784Z,74.97
2018-06-04T09:38:41.831Z,82.23
2018-06-04T09:41:09.769Z,84.63
2018-06-04T09:43:37.703Z,78.47
2018-06-04T09:46:05.684Z,77.23
2018-06-04T09:48:33.600Z,79.53
2018-06-04T09:51:01.517Z,78.10
2018-06-04T09:53:29.634Z,77.00
2018-06-04T09:55:57.607Z,72.50
2018-06-04T09:58:25.508Z,74.67
2018-06-04T10:00:53.414Z,71.50
2018-06-04T10:03:21.355Z,63.40
2018-06-04T10:05:49.276Z,70.57
2018-06-04T10:08:20.685Z,69.37
2018-06-04T10:10:48.630Z,70.77
2018-06-04T10:13:16.608Z,75.73
2018-06-04T10:15:44.513Z,74.23
2018-06-04T10:18:13.594Z,78.03
2018-06-04T10:20:41.522Z,69.43
2018-06-04T10:23:09.772Z,71.43
2018-06-04T10:25:37.527Z,66.87
2018-06-04T10:28:05.590Z,73.90
2018-06-04T10:30:33.519Z,74.50
2018-06-04T10:33:02.535Z,68.67
2018-06-04T10:35:30.610Z,75.03
2018-06-04T10:37:58.568Z,83.33
2018-06-04T10:40:26.491Z,84.43
2018-06-04T10:42:54.485Z,87.83
2018-06-04T10:45:22.402Z,90.10
2018-06-04T10:47:50.331Z,89.30
2018-06-04T10:50:18.288Z,92.70
2018-06-04T10:52:46.252Z,94.40
2018-06-04T10:55:14.171Z,101.63
2018-06-04T10:57:42.137Z,86.27
2018-06-04T11:00:09.891Z,87.47
2018-06-04T11:02:37.823Z,92.27
2018-06-04T11:05:05.741Z,89.27
2018-06-04T11:07:33.754Z,87.67
2018-06-04T11:10:01.692Z,88.57
2018-06-04T11:12:29.682Z,91.53
2018-06-04T11:21:42.574Z,88.43
2018-06-04T11:24:10.518Z,88.00
2018-06-04T11:26:38.506Z,84.57
2018-06-04T11:29:06.424Z,85.10
2018-06-04T11:31:34.442Z,90.93
2018-06-04T11:34:02.358Z,86.30
2018-06-04T11:36:30.623Z,94.33
2018-06-04T11:38:58.498Z,92.13
2018-06-04T11:41:26.521Z,88.80
2018-06-04T11:43:54.545Z,113.40
2018-06-04T11:46:22.466Z,107.27
2018-06-04T11:48:50.381Z,109.20
2018-06-04T11:51:18.495Z,98.90
2018-06-04T11:53:46.413Z,104.67
2018-06-04T11:56:14.484Z,99.40
2018-06-04T11:58:42.440Z,92.40
2018-06-04T12:01:10.380Z,92.13
2018-06-04T12:03:38.451Z,80.97
2018-06-04T12:06:06.421Z,84.00
2018-06-04T12:08:34.324Z,81.40
2018-06-04T12:11:02.326Z,78.13
2018-06-04T12:13:30.242Z,78.30
2018-06-04T12:15:58.177Z,85.80
2018-06-04T12:18:26.096Z,77.03
2018-06-04T12:20:54.104Z,81.77
2018-06-04T12:23:22.028Z,77.63
2018-06-04T12:25:52.126Z,76.03
2018-06-04T12:28:20.020Z,78.97
2018-06-04T12:30:50.069Z,75.80
2018-06-04T12:33:18.188Z,67.32
2018-06-04T12:35:46.002Z,73.40
2018-06-04T12:38:13.937Z,73.77
2018-06-04T12:40:45.515Z,72.40
2018-06-04T12:43:13.889Z,76.97
2018-06-04T12:45:41.882Z,68.20
2018-06-04T12:48:09.661Z,67.25
2018-06-04T12:50:38.805Z,66.37
2018-06-04T12:53:08.104Z,69.50
2018-06-04T12:55:36.583Z,66.07
2018-06-04T12:58:04.695Z,60.98
2018-06-04T13:00:32.794Z,76.87
2018-06-04T13:03:00.825Z,64.67
2018-06-04T13:05:29.000Z,71.67
2018-06-04T13:07:57.276Z,61.68
2018-06-04T13:10:28.856Z,67.10
2018-06-04T13:12:56.875Z,65.83
2018-06-04T13:15:25.169Z,68.22
2018-06-04T13:17:53.051Z,64.92
2018-06-04T13:20:21.294Z,63.55
2018-06-04T13:22:49.566Z,74.90
2018-06-04T13:25:17.622Z,64.90
2018-06-04T13:27:45.744Z,67.22
2018-06-04T13:30:13.988Z,65.25
2018-06-04T13:32:42.060Z,61.77
2018-06-04T13:35:10.364Z,64.05
2018-06-04T13:37:38.609Z,61.80
2018-06-04T13:40:06.858Z,85.05
2018-06-04T13:42:35.002Z,57.13
2018-06-04T13:45:03.260Z,52.10
2018-06-04T13:47:31.295Z,55.83
2018-06-04T13:49:59.579Z,51.75
2018-06-04T13:52:27.530Z,57.93
2018-06-04T13:54:55.701Z,57.48
2018-06-04T13:57:24.090Z,53.02
2018-06-04T13:59:52.303Z,58.78
2018-06-04T14:02:20.287Z,65.40
2018-06-04T14:04:49.393Z,60.92
2018-06-04T14:07:17.609Z,57.73
2018-06-04T14:09:45.654Z,54.10
2018-06-04T14:12:13.634Z,59.58
2018-06-04T14:14:41.522Z,56.80
2018-06-04T14:17:09.993Z,60.35
2018-06-04T14:19:38.065Z,64.42
2018-06-04T14:22:05.982Z,62.45
2018-06-04T14:24:35.220Z,56.45
2018-06-04T14:27:03.177Z,65.67
2018-06-04T14:29:31.165Z,63.10
2018-06-04T14:31:59.558Z,58.58
2018-06-04T14:34:28.120Z,59.75
2018-06-04T14:36:56.423Z,56.48
2018-06-04T14:39:29.443Z,53.98
2018-06-04T14:41:57.654Z,50.20
2018-06-04T14:44:28.028Z,49.83
2018-06-04T14:46:56.301Z,45.40
2018-06-04T14:49:29.746Z,46.83
2018-06-04T14:51:58.835Z,43.98
2018-06-04T14:54:31.660Z,50.17
2018-06-04T14:56:59.752Z,45.08
2018-06-04T14:59:27.994Z,59.48
2018-06-04T15:01:56.469Z,57.75
2018-06-04T15:04:28.837Z,62.03
2018-06-04T15:06:56.808Z,47.70
2018-06-04T15:09:25.170Z,42.13
2018-06-04T15:11:53.553Z,39.20
2018-06-04T15:14:23.826Z,43.68
2018-06-04T15:16:53.806Z,42.50
2018-06-04T15:19:22.166Z,43.73
2018-06-04T15:21:50.484Z,40.73
2018-06-04T15:24:20.970Z,38.33
2018-06-04T15:26:49.497Z,34.30
2018-06-04T15:29:29.609Z,36.58
2018-06-04T15:31:57.708Z,36.88
2018-06-04T15:34:29.671Z,36.48
2018-06-04T15:36:57.967Z,35.78
2018-06-04T15:39:26.213Z,34.00
2018-06-04T15:41:54.344Z,34.08
2018-06-04T15:44:27.852Z,34.00
2018-06-04T15:46:55.957Z,32.58
2018-06-04T15:49:24.373Z,28.85
2018-06-04T15:51:52.301Z,32.42
2018-06-04T15:54:21.400Z,27.05
2018-06-04T15:56:49.452Z,30.08
2018-06-04T15:59:17.734Z,28.17
2018-06-04T16:01:45.652Z,28.30
2018-06-04T16:04:14.022Z,30.20
2018-06-04T16:06:42.025Z,31.30
2018-06-04T16:09:10.650Z,27.98
2018-06-04T16:11:38.932Z,28.12
2018-06-04T16:14:08.371Z,25.70
2018-06-04T16:16:36.279Z,28.83
2018-06-04T16:19:04.749Z,26.23
2018-06-04T16:21:33.018Z,25.48
2018-06-04T16:24:02.135Z,24.87
2018-06-04T16:26:30.101Z,28.02
2018-06-04T16:28:58.260Z,26.42
2018-06-04T16:31:27.552Z,25.48
2018-06-04T16:33:55.710Z,25.32
2018-06-04T16:36:23.911Z,24.52
2018-06-04T16:38:52.259Z,23.57
2018-06-04T16:41:20.696Z,21.10
2018-06-04T16:43:48.944Z,25.47
2018-06-04T16:46:17.060Z,27.37
2018-06-04T16:48:45.479Z,21.60
2018-06-04T16:51:13.465Z,24.97
2018-06-04T16:53:42.993Z,22.33
2018-06-04T16:56:11.241Z,27.22
2018-06-04T16:58:39.734Z,25.23
2018-06-04T17:01:07.771Z,22.60
2018-06-04T17:03:36.089Z,27.40
2018-06-04T17:06:04.126Z,24.50
2018-06-04T17:08:32.458Z,24.60
2018-06-04T17:11:00.500Z,21.73
2018-06-04T17:13:28.483Z,25.13
2018-06-04T17:15:56.425Z,25.23
2018-06-04T17:18:24.949Z,24.13
2018-06-04T17:20:52.758Z,24.43
2018-06-04T17:23:20.822Z,21.77
2018-06-04T17:25:48.888Z,25.17
2018-06-04T17:28:17.250Z,28.27
2018-06-04T17:30:45.509Z,22.30
2018-06-04T17:33:14.035Z,26.63
2018-06-04T17:35:42.304Z,30.27
2018-06-04T17:38:11.013Z,32.10
2018-06-04T17:40:39.272Z,33.20
2018-06-04T17:43:07.695Z,31.53
2018-06-04T17:45:35.472Z,36.83
2018-06-04T17:48:03.986Z,36.40
2018-06-04T17:50:31.996Z,34.95
2018-06-04T17:53:00.451Z,36.23
2018-06-04T17:55:28.554Z,31.37
2018-06-04T17:57:56.823Z,30.30
2018-06-04T18:00:24.800Z,28.30
2018-06-04T18:02:52.951Z,25.33
2018-06-04T18:05:20.944Z,32.43
2018-06-04T18:07:49.283Z,27.60
2018-06-04T18:10:17.382Z,28.60
2018-06-04T18:12:45.585Z,31.60
2018-06-04T18:15:13.913Z,27.93
2018-06-04T18:17:42.380Z,30.30
2018-06-04T18:20:10.570Z,24.43
2018-06-04T18:22:38.931Z,31.10
2018-06-04T18:25:06.872Z,29.83
2018-06-04T18:27:35.392Z,25.33
2018-06-04T18:30:03.496Z,32.13
2018-06-04T18:32:32.922Z,26.87
2018-06-04T18:35:01.114Z,27.00
2018-06-04T18:37:29.576Z,31.40
2018-06-04T18:39:57.717Z,23.17
2018-06-04T18:42:26.805Z,22.73
2018-06-04T18:44:55.035Z,23.53
2018-06-04T18:47:23.111Z,26.47
2018-06-04T18:49:51.441Z,16.70
2018-06-04T18:52:19.622Z,22.90
2018-06-04T18:54:47.944Z,23.40
2018-06-04T18:57:17.856Z,28.40
2018-06-04T18:59:45.917Z,27.93
2018-06-04T19:02:14.013Z,23.87
2018-06-04T19:04:42.235Z,22.27
2018-06-04T19:07:10.372Z,27.57
2018-06-04T19:09:38.430Z,29.27
2018-06-04T19:12:06.733Z,29.53
2018-06-04T19:14:35.240Z,26.63
2018-06-04T19:17:03.420Z,29.83
2018-06-04T19:19:31.528Z,29.47
2018-06-04T19:21:59.810Z,28.90
2018-06-04T19:24:27.970Z,26.67
2018-06-04T19:26:56.524Z,28.50
2018-06-04T19:29:24.493Z,25.63
2018-06-04T19:31:52.621Z,35.87
2018-06-04T19:34:20.547Z,34.67
2018-06-04T19:36:48.635Z,35.20
2018-06-04T19:39:16.935Z,41.37
2018-06-04T19:41:45.042Z,37.33
2018-06-04T19:44:13.097Z,41.63
2018-06-04T19:46:41.295Z,41.57
2018-06-04T19:49:09.417Z,40.97
2018-06-04T19:51:37.370Z,43.33
2018-06-04T19:54:05.567Z,46.03
2018-06-04T19:56:33.797Z,44.70
2018-06-04T19:59:01.945Z,49.43
2018-06-04T20:01:30.499Z,52.10
2018-06-04T20:03:58.635Z,47.83
2018-06-04T20:06:26.855Z,51.70
2018-06-04T20:08:55.019Z,49.47
2018-06-04T20:11:23.091Z,51.03
2018-06-04T20:13:51.124Z,56.73
2018-06-04T20:16:42.335Z,54.33
2018-06-04T20:19:10.543Z,56.43
2018-06-04T20:21:38.619Z,49.10
2018-06-04T20:24:06.899Z,52.90
2018-06-04T20:26:34.719Z,49.33
2018-06-04T20:29:02.940Z,52.10
2018-06-04T20:31:30.664Z,54.03
2018-06-04T20:33:58.744Z,51.07
2018-06-04T20:36:26.818Z,50.27
2018-06-04T20:38:54.867Z,49.70
2018-06-04T20:41:22.966Z,51.63
2018-06-04T20:43:50.919Z,52.70
2018-06-04T20:46:20.133Z,50.30
2018-06-04T20:48:48.160Z,58.37
2018-06-04T20:51:16.299Z,61.83
2018-06-04T20:53:44.250Z,59.30
2018-06-04T20:56:12.602Z,54.57
2018-06-04T20:58:41.859Z,58.97
2018-06-04T21:01:10.171Z,51.90
2018-06-04T21:03:38.243Z,51.70
2018-06-04T21:06:06.370Z,55.07
2018-06-04T21:08:34.681Z,60.00
2018-06-04T21:11:02.779Z,59.43
2018-06-04T21:13:31.037Z,59.97
2018-06-04T21:15:59.796Z,56.43
2018-06-04T21:18:27.838Z,69.17
2018-06-04T21:20:55.752Z,65.23
2018-06-04T21:23:25.033Z,67.30
2018-06-04T21:25:53.548Z,68.50
2018-06-04T21:28:21.996Z,77.77
2018-06-04T21:30:50.314Z,81.87
2018-06-04T21:33:18.566Z,87.03
2018-06-04T21:35:46.630Z,83.67
2018-06-04T21:38:14.717Z,96.63
2018-06-04T21:40:42.762Z,99.37
2018-06-04T21:43:11.254Z,104.97
2018-06-04T21:45:39.361Z,122.80
2018-06-04T21:48:07.411Z,118.50
2018-06-04T21:50:35.647Z,109.63
2018-06-04T21:53:03.718Z,123.03
2018-06-04T21:55:32.050Z,124.57
2018-06-04T21:58:01.085Z,134.90
2018-06-04T22:00:29.295Z,110.47
2018-06-04T22:02:58.852Z,127.37
2018-06-04T22:05:26.958Z,127.40
2018-06-04T22:07:55.009Z,125.07
2018-06-04T22:10:23.307Z,128.37
2018-06-04T22:12:51.335Z,135.83
2018-06-04T22:15:20.249Z,133.60
2018-06-04T22:17:48.557Z,128.97
2018-06-04T22:20:17.171Z,136.30
2018-06-04T22:22:45.303Z,126.73
2018-06-04T22:25:13.399Z,145.43
2018-06-04T22:27:42.131Z,131.13
2018-06-04T22:30:10.122Z,128.93
2018-06-04T22:32:38.136Z,126.70
2018-06-04T22:35:06.429Z,117.83
2018-06-04T22:37:34.840Z,124.73
2018-06-04T22:40:02.888Z,129.33
2018-06-04T22:42:31.095Z,129.67
2018-06-04T22:44:59.366Z,138.27
2018-06-04T22:47:27.623Z,131.73
2018-06-04T22:49:55.508Z,100.97
2018-06-04T22:52:23.570Z,107.90
2018-06-04T22:54:51.912Z,119.57
2018-06-04T22:57:20.767Z,119.30
2018-06-04T22:59:49.080Z,114.57
2018-06-04T23:02:17.052Z,119.40
2018-06-04T23:04:45.389Z,126.97
2018-06-04T23:07:13.427Z,132.00
2018-06-04T23:09:41.527Z,118.47
2018-06-04T23:12:09.562Z,107.20
2018-06-04T23:14:37.856Z,125.73
2018-06-04T23:17:05.881Z,120.33
2018-06-04T23:19:34.003Z,121.90
2018-06-04T23:22:02.248Z,118.77
2018-06-04T23:24:31.230Z,116.53
2018-06-04T23:26:59.438Z,118.70
2018-06-04T23:29:27.708Z,124.23
2018-06-04T23:31:56.843Z,107.67
2018-06-04T23:34:25.077Z,111.60
2018-06-04T23:36:53.064Z,121.53
2018-06-04T23:39:21.022Z,116.30
2018-06-04T23:41:49.325Z,102.73
2018-06-04T23:44:17.575Z,106.03
2018-06-04T23:46:45.815Z,106.23
2018-06-04T23:49:13.758Z,100.77
2018-06-04T23:51:41.980Z,105.73
2018-06-04T23:54:10.260Z,102.40
2018-06-04T23:56:38.390Z,96.60
2018-06-04T23:59:07.000Z,94.13
